sensor_id;sensor_type;location;lat;lon;timestamp;P1;durP1;ratioP1;P2;durP2;ratioP2
29412;SDS011;16389;50.126;8.450;2023-11-21T00:00:12;5.45;;;4.03;;
29412;SDS011;16389;50.126;8.450;2023-11-21T00:02:39;5.80;;;4.05;;
29412;SDS011;16389;50.126;8.450;2023-11-21T00:05:07;7.68;;;3.90;;
29412;SDS011;16389;50.126;8.450;2023-11-21T00:07:33;5.45;;;3.95;;
29412;SDS011;16389;50.126;8.450;2023-11-21T00:09:59;6.60;;;5.28;;
29412;SDS011;16389;50.126;8.450;2023-11-21T00:12:29;6.60;;;5.10;;
29412;SDS011;16389;50.126;8.450;2023-11-21T00:14:54;7.60;;;4.60;;
29412;SDS011;16389;50.126;8.450;2023-11-21T00:17:21;8.23;;;4.80;;
29412;SDS011;16389;50.126;8.450;2023-11-21T00:19:47;8.68;;;4.50;;
29412;SDS011;16389;50.126;8.450;2023-11-21T00:22:13;8.18;;;4.50;;
29412;SDS011;16389;50.126;8.450;2023-11-21T00:24:39;6.35;;;4.70;;
29412;SDS011;16389;50.126;8.450;2023-11-21T00:27:05;5.63;;;4.30;;
29412;SDS011;16389;50.126;8.450;2023-11-21T00:29:34;6.50;;;5.10;;
29412;SDS011;16389;50.126;8.450;2023-11-21T00:32:00;5.28;;;4.60;;
29412;SDS011;16389;50.126;8.450;2023-11-21T00:34:27;6.00;;;3.80;;
29412;SDS011;16389;50.126;8.450;2023-11-21T00:36:53;4.43;;;3.53;;
29412;SDS011;16389;50.126;8.450;2023-11-21T00:39:19;5.25;;;4.05;;
29412;SDS011;16389;50.126;8.450;2023-11-21T00:41:45;5.75;;;4.30;;
29412;SDS011;16389;50.126;8.450;2023-11-21T00:44:11;4.93;;;4.40;;
29412;SDS011;16389;50.126;8.450;2023-11-21T00:46:38;8.38;;;4.35;;
29412;SDS011;16389;50.126;8.450;2023-11-21T00:49:04;5.82;;;3.75;;
29412;SDS011;16389;50.126;8.450;2023-11-21T00:51:30;6.32;;;4.93;;
29412;SDS011;16389;50.126;8.450;2023-11-21T00:54:00;5.15;;;4.28;;
29412;SDS011;16389;50.126;8.450;2023-11-21T00:56:30;7.00;;;5.78;;
29412;SDS011;16389;50.126;8.450;2023-11-21T00:58:56;8.88;;;5.38;;
29412;SDS011;16389;50.126;8.450;2023-11-21T01:01:22;6.13;;;5.53;;
29412;SDS011;16389;50.126;8.450;2023-11-21T01:03:49;7.25;;;5.35;;
29412;SDS011;16389;50.126;8.450;2023-11-21T01:06:16;6.10;;;5.50;;
29412;SDS011;16389;50.126;8.450;2023-11-21T01:08:43;8.15;;;5.90;;
29412;SDS011;16389;50.126;8.450;2023-11-21T01:11:09;8.98;;;5.65;;
29412;SDS011;16389;50.126;8.450;2023-11-21T01:13:40;6.53;;;5.93;;
29412;SDS011;16389;50.126;8.450;2023-11-21T01:18:36;6.07;;;4.83;;
29412;SDS011;16389;50.126;8.450;2023-11-21T01:21:02;5.30;;;4.57;;
29412;SDS011;16389;50.126;8.450;2023-11-21T01:23:29;5.53;;;4.88;;
29412;SDS011;16389;50.126;8.450;2023-11-21T01:25:56;4.72;;;4.32;;
29412;SDS011;16389;50.126;8.450;2023-11-21T01:28:23;6.50;;;4.80;;
29412;SDS011;16389;50.126;8.450;2023-11-21T01:30:52;4.90;;;4.20;;
29412;SDS011;16389;50.126;8.450;2023-11-21T01:33:24;5.68;;;4.10;;
29412;SDS011;16389;50.126;8.450;2023-11-21T01:35:51;5.18;;;3.92;;
29412;SDS011;16389;50.126;8.450;2023-11-21T01:38:20;3.92;;;3.47;;
29412;SDS011;16389;50.126;8.450;2023-11-21T01:40:46;7.78;;;4.13;;
29412;SDS011;16389;50.126;8.450;2023-11-21T01:43:12;4.18;;;3.78;;
29412;SDS011;16389;50.126;8.450;2023-11-21T01:45:38;6.70;;;3.78;;
29412;SDS011;16389;50.126;8.450;2023-11-21T01:48:10;4.03;;;3.30;;
29412;SDS011;16389;50.126;8.450;2023-11-21T01:50:36;3.67;;;3.25;;
29412;SDS011;16389;50.126;8.450;2023-11-21T01:53:05;3.97;;;3.25;;
29412;SDS011;16389;50.126;8.450;2023-11-21T01:55:31;3.80;;;3.40;;
29412;SDS011;16389;50.126;8.450;2023-11-21T01:57:58;3.92;;;3.50;;
29412;SDS011;16389;50.126;8.450;2023-11-21T02:00:25;4.47;;;2.53;;
29412;SDS011;16389;50.126;8.450;2023-11-21T02:02:55;3.60;;;2.83;;
29412;SDS011;16389;50.126;8.450;2023-11-21T02:05:22;3.03;;;2.60;;
29412;SDS011;16389;50.126;8.450;2023-11-21T02:07:48;3.83;;;3.08;;
29412;SDS011;16389;50.126;8.450;2023-11-21T02:10:15;3.38;;;2.53;;
29412;SDS011;16389;50.126;8.450;2023-11-21T02:12:41;3.13;;;2.80;;
29412;SDS011;16389;50.126;8.450;2023-11-21T02:15:08;4.20;;;2.90;;
29412;SDS011;16389;50.126;8.450;2023-11-21T02:17:42;3.42;;;2.83;;
29412;SDS011;16389;50.126;8.450;2023-11-21T02:20:15;4.60;;;2.57;;
29412;SDS011;16389;50.126;8.450;2023-11-21T02:22:42;4.13;;;2.70;;
29412;SDS011;16389;50.126;8.450;2023-11-21T02:25:09;26.80;;;4.03;;
29412;SDS011;16389;50.126;8.450;2023-11-21T02:27:38;5.50;;;2.25;;
29412;SDS011;16389;50.126;8.450;2023-11-21T02:30:05;4.35;;;2.75;;
29412;SDS011;16389;50.126;8.450;2023-11-21T02:32:32;4.60;;;3.17;;
29412;SDS011;16389;50.126;8.450;2023-11-21T02:34:59;4.63;;;2.88;;
29412;SDS011;16389;50.126;8.450;2023-11-21T02:37:28;6.38;;;3.53;;
29412;SDS011;16389;50.126;8.450;2023-11-21T02:39:54;4.65;;;3.05;;
29412;SDS011;16389;50.126;8.450;2023-11-21T02:42:21;4.00;;;3.35;;
29412;SDS011;16389;50.126;8.450;2023-11-21T02:44:47;3.50;;;3.00;;
29412;SDS011;16389;50.126;8.450;2023-11-21T02:47:13;3.90;;;3.47;;
29412;SDS011;16389;50.126;8.450;2023-11-21T02:49:39;6.50;;;3.58;;
29412;SDS011;16389;50.126;8.450;2023-11-21T02:52:05;4.97;;;3.25;;
29412;SDS011;16389;50.126;8.450;2023-11-21T02:54:31;4.45;;;3.53;;
29412;SDS011;16389;50.126;8.450;2023-11-21T02:57:01;4.65;;;3.85;;
29412;SDS011;16389;50.126;8.450;2023-11-21T02:59:27;4.25;;;3.33;;
29412;SDS011;16389;50.126;8.450;2023-11-21T03:01:53;6.93;;;3.40;;
29412;SDS011;16389;50.126;8.450;2023-11-21T03:04:21;4.38;;;3.72;;
29412;SDS011;16389;50.126;8.450;2023-11-21T03:06:50;8.40;;;5.45;;
29412;SDS011;16389;50.126;8.450;2023-11-21T03:09:16;6.20;;;4.40;;
29412;SDS011;16389;50.126;8.450;2023-11-21T03:11:43;6.68;;;4.10;;
29412;SDS011;16389;50.126;8.450;2023-11-21T03:14:09;6.70;;;5.68;;
29412;SDS011;16389;50.126;8.450;2023-11-21T03:16:35;7.72;;;5.45;;
29412;SDS011;16389;50.126;8.450;2023-11-21T03:19:03;7.63;;;6.85;;
29412;SDS011;16389;50.126;8.450;2023-11-21T03:21:33;8.90;;;6.68;;
29412;SDS011;16389;50.126;8.450;2023-11-21T03:23:59;6.85;;;5.15;;
29412;SDS011;16389;50.126;8.450;2023-11-21T03:26:25;7.22;;;5.80;;
29412;SDS011;16389;50.126;8.450;2023-11-21T03:28:51;6.40;;;5.47;;
29412;SDS011;16389;50.126;8.450;2023-11-21T03:31:18;6.82;;;5.97;;
29412;SDS011;16389;50.126;8.450;2023-11-21T03:33:45;8.68;;;5.57;;
29412;SDS011;16389;50.126;8.450;2023-11-21T03:36:12;9.27;;;5.75;;
29412;SDS011;16389;50.126;8.450;2023-11-21T03:38:40;7.50;;;6.57;;
29412;SDS011;16389;50.126;8.450;2023-11-21T03:41:07;6.60;;;5.38;;
29412;SDS011;16389;50.126;8.450;2023-11-21T03:43:36;6.47;;;5.47;;
29412;SDS011;16389;50.126;8.450;2023-11-21T03:46:02;11.15;;;5.35;;
29412;SDS011;16389;50.126;8.450;2023-11-21T03:48:29;7.78;;;5.80;;
29412;SDS011;16389;50.126;8.450;2023-11-21T03:50:55;7.38;;;5.32;;
29412;SDS011;16389;50.126;8.450;2023-11-21T03:53:24;6.88;;;6.18;;
29412;SDS011;16389;50.126;8.450;2023-11-21T03:55:54;6.72;;;5.93;;
29412;SDS011;16389;50.126;8.450;2023-11-21T03:58:23;6.50;;;4.27;;
29412;SDS011;16389;50.126;8.450;2023-11-21T04:00:53;5.65;;;4.80;;
29412;SDS011;16389;50.126;8.450;2023-11-21T04:03:23;6.65;;;4.65;;
29412;SDS011;16389;50.126;8.450;2023-11-21T04:05:50;7.07;;;4.18;;
29412;SDS011;16389;50.126;8.450;2023-11-21T04:08:16;5.45;;;4.53;;
29412;SDS011;16389;50.126;8.450;2023-11-21T04:10:42;6.25;;;4.10;;
29412;SDS011;16389;50.126;8.450;2023-11-21T04:13:09;4.70;;;3.95;;
29412;SDS011;16389;50.126;8.450;2023-11-21T04:15:35;4.18;;;3.78;;
29412;SDS011;16389;50.126;8.450;2023-11-21T04:18:01;4.30;;;3.28;;
29412;SDS011;16389;50.126;8.450;2023-11-21T04:20:28;4.35;;;3.63;;
29412;SDS011;16389;50.126;8.450;2023-11-21T04:22:54;4.43;;;2.80;;
29412;SDS011;16389;50.126;8.450;2023-11-21T04:25:20;11.77;;;5.32;;
29412;SDS011;16389;50.126;8.450;2023-11-21T04:27:51;6.97;;;3.63;;
29412;SDS011;16389;50.126;8.450;2023-11-21T04:30:17;5.63;;;3.00;;
29412;SDS011;16389;50.126;8.450;2023-11-21T04:32:43;5.93;;;3.40;;
29412;SDS011;16389;50.126;8.450;2023-11-21T04:35:09;3.17;;;2.88;;
29412;SDS011;16389;50.126;8.450;2023-11-21T04:37:35;6.55;;;3.50;;
29412;SDS011;16389;50.126;8.450;2023-11-21T04:40:02;6.80;;;2.90;;
29412;SDS011;16389;50.126;8.450;2023-11-21T04:42:32;3.97;;;3.55;;
29412;SDS011;16389;50.126;8.450;2023-11-21T04:44:58;6.22;;;3.22;;
29412;SDS011;16389;50.126;8.450;2023-11-21T04:47:24;4.18;;;2.92;;
29412;SDS011;16389;50.126;8.450;2023-11-21T04:49:50;3.90;;;2.58;;
29412;SDS011;16389;50.126;8.450;2023-11-21T04:52:17;3.65;;;2.70;;
29412;SDS011;16389;50.126;8.450;2023-11-21T04:54:44;4.82;;;3.08;;
29412;SDS011;16389;50.126;8.450;2023-11-21T04:57:10;6.47;;;3.10;;
29412;SDS011;16389;50.126;8.450;2023-11-21T04:59:37;4.78;;;2.92;;
29412;SDS011;16389;50.126;8.450;2023-11-21T05:02:03;4.80;;;2.90;;
29412;SDS011;16389;50.126;8.450;2023-11-21T05:04:30;3.33;;;2.42;;
29412;SDS011;16389;50.126;8.450;2023-11-21T05:06:56;5.05;;;2.30;;
29412;SDS011;16389;50.126;8.450;2023-11-21T05:09:22;5.65;;;2.30;;
29412;SDS011;16389;50.126;8.450;2023-11-21T05:11:48;3.13;;;1.73;;
29412;SDS011;16389;50.126;8.450;2023-11-21T05:14:14;3.03;;;2.05;;
29412;SDS011;16389;50.126;8.450;2023-11-21T05:16:40;2.28;;;1.52;;
29412;SDS011;16389;50.126;8.450;2023-11-21T05:19:07;3.33;;;1.90;;
29412;SDS011;16389;50.126;8.450;2023-11-21T05:21:34;2.42;;;1.45;;
29412;SDS011;16389;50.126;8.450;2023-11-21T05:24:01;2.28;;;1.60;;
29412;SDS011;16389;50.126;8.450;2023-11-21T05:26:27;3.30;;;1.58;;
29412;SDS011;16389;50.126;8.450;2023-11-21T05:28:53;3.50;;;1.70;;
29412;SDS011;16389;50.126;8.450;2023-11-21T05:31:19;6.18;;;1.63;;
29412;SDS011;16389;50.126;8.450;2023-11-21T05:33:48;8.90;;;1.60;;
29412;SDS011;16389;50.126;8.450;2023-11-21T05:36:14;4.75;;;1.60;;
29412;SDS011;16389;50.126;8.450;2023-11-21T05:38:40;3.30;;;2.30;;
29412;SDS011;16389;50.126;8.450;2023-11-21T05:41:06;3.50;;;1.70;;
29412;SDS011;16389;50.126;8.450;2023-11-21T05:43:35;3.13;;;1.60;;
29412;SDS011;16389;50.126;8.450;2023-11-21T05:46:02;2.65;;;1.80;;
29412;SDS011;16389;50.126;8.450;2023-11-21T05:48:28;4.80;;;3.10;;
29412;SDS011;16389;50.126;8.450;2023-11-21T05:50:55;3.10;;;2.45;;
29412;SDS011;16389;50.126;8.450;2023-11-21T05:53:21;2.55;;;1.98;;
29412;SDS011;16389;50.126;8.450;2023-11-21T05:55:47;6.80;;;2.38;;
29412;SDS011;16389;50.126;8.450;2023-11-21T05:58:13;4.25;;;1.88;;
29412;SDS011;16389;50.126;8.450;2023-11-21T06:00:40;5.10;;;2.40;;
29412;SDS011;16389;50.126;8.450;2023-11-21T06:03:06;5.72;;;2.55;;
29412;SDS011;16389;50.126;8.450;2023-11-21T06:05:33;3.65;;;2.45;;
29412;SDS011;16389;50.126;8.450;2023-11-21T06:07:59;5.32;;;2.75;;
29412;SDS011;16389;50.126;8.450;2023-11-21T06:10:26;5.50;;;2.30;;
29412;SDS011;16389;50.126;8.450;2023-11-21T06:12:53;5.55;;;2.70;;
29412;SDS011;16389;50.126;8.450;2023-11-21T06:15:19;3.10;;;2.35;;
29412;SDS011;16389;50.126;8.450;2023-11-21T06:17:47;6.18;;;2.50;;
29412;SDS011;16389;50.126;8.450;2023-11-21T06:22:43;4.13;;;2.47;;
29412;SDS011;16389;50.126;8.450;2023-11-21T06:25:12;5.75;;;2.47;;
29412;SDS011;16389;50.126;8.450;2023-11-21T06:27:40;5.00;;;3.15;;
29412;SDS011;16389;50.126;8.450;2023-11-21T06:30:06;4.85;;;2.50;;
29412;SDS011;16389;50.126;8.450;2023-11-21T06:32:34;6.50;;;2.10;;
29412;SDS011;16389;50.126;8.450;2023-11-21T06:35:01;5.43;;;2.40;;
29412;SDS011;16389;50.126;8.450;2023-11-21T06:37:32;6.82;;;3.25;;
29412;SDS011;16389;50.126;8.450;2023-11-21T06:42:26;3.63;;;2.40;;
29412;SDS011;16389;50.126;8.450;2023-11-21T06:44:52;2.95;;;2.33;;
29412;SDS011;16389;50.126;8.450;2023-11-21T06:47:22;4.57;;;2.42;;
29412;SDS011;16389;50.126;8.450;2023-11-21T06:49:54;4.47;;;2.28;;
29412;SDS011;16389;50.126;8.450;2023-11-21T06:52:21;3.15;;;1.83;;
29412;SDS011;16389;50.126;8.450;2023-11-21T06:54:47;2.72;;;2.03;;
29412;SDS011;16389;50.126;8.450;2023-11-21T06:57:17;8.48;;;1.90;;
29412;SDS011;16389;50.126;8.450;2023-11-21T06:59:45;4.63;;;2.38;;
29412;SDS011;16389;50.126;8.450;2023-11-21T07:02:11;3.53;;;2.08;;
29412;SDS011;16389;50.126;8.450;2023-11-21T07:04:44;3.08;;;2.65;;
29412;SDS011;16389;50.126;8.450;2023-11-21T07:07:11;4.38;;;2.00;;
29412;SDS011;16389;50.126;8.450;2023-11-21T07:09:40;4.28;;;2.00;;
29412;SDS011;16389;50.126;8.450;2023-11-21T07:12:06;4.65;;;1.70;;
29412;SDS011;16389;50.126;8.450;2023-11-21T07:14:36;3.25;;;1.80;;
29412;SDS011;16389;50.126;8.450;2023-11-21T07:17:04;3.83;;;2.10;;
29412;SDS011;16389;50.126;8.450;2023-11-21T07:19:31;2.55;;;1.92;;
29412;SDS011;16389;50.126;8.450;2023-11-21T07:21:57;10.90;;;3.50;;
29412;SDS011;16389;50.126;8.450;2023-11-21T07:24:23;4.35;;;1.67;;
29412;SDS011;16389;50.126;8.450;2023-11-21T07:26:53;2.45;;;1.92;;
29412;SDS011;16389;50.126;8.450;2023-11-21T07:29:21;6.88;;;2.05;;
29412;SDS011;16389;50.126;8.450;2023-11-21T07:31:52;2.25;;;1.50;;
29412;SDS011;16389;50.126;8.450;2023-11-21T07:34:19;2.92;;;1.60;;
29412;SDS011;16389;50.126;8.450;2023-11-21T07:36:48;2.97;;;1.50;;
29412;SDS011;16389;50.126;8.450;2023-11-21T07:39:17;3.25;;;1.70;;
29412;SDS011;16389;50.126;8.450;2023-11-21T07:41:44;2.72;;;1.45;;
29412;SDS011;16389;50.126;8.450;2023-11-21T07:44:13;1.95;;;1.17;;
29412;SDS011;16389;50.126;8.450;2023-11-21T07:46:39;2.20;;;1.58;;
29412;SDS011;16389;50.126;8.450;2023-11-21T07:49:05;4.75;;;1.65;;
29412;SDS011;16389;50.126;8.450;2023-11-21T07:51:34;1.27;;;1.02;;
29412;SDS011;16389;50.126;8.450;2023-11-21T07:54:04;4.03;;;1.35;;
29412;SDS011;16389;50.126;8.450;2023-11-21T07:56:33;1.15;;;1.05;;
29412;SDS011;16389;50.126;8.450;2023-11-21T07:58:59;1.02;;;0.77;;
29412;SDS011;16389;50.126;8.450;2023-11-21T08:01:25;1.92;;;0.95;;
29412;SDS011;16389;50.126;8.450;2023-11-21T08:06:31;2.95;;;1.17;;
29412;SDS011;16389;50.126;8.450;2023-11-21T08:08:58;9.02;;;2.50;;
29412;SDS011;16389;50.126;8.450;2023-11-21T08:11:24;2.20;;;1.10;;
29412;SDS011;16389;50.126;8.450;2023-11-21T08:14:01;1.20;;;1.10;;
29412;SDS011;16389;50.126;8.450;2023-11-21T08:16:27;2.90;;;1.00;;
29412;SDS011;16389;50.126;8.450;2023-11-21T08:18:53;1.88;;;1.00;;
29412;SDS011;16389;50.126;8.450;2023-11-21T08:21:20;3.42;;;1.10;;
29412;SDS011;16389;50.126;8.450;2023-11-21T08:23:49;6.32;;;1.23;;
29412;SDS011;16389;50.126;8.450;2023-11-21T08:26:22;0.93;;;0.90;;
29412;SDS011;16389;50.126;8.450;2023-11-21T08:28:48;1.50;;;1.20;;
29412;SDS011;16389;50.126;8.450;2023-11-21T08:31:14;1.50;;;1.20;;
29412;SDS011;16389;50.126;8.450;2023-11-21T08:33:41;1.65;;;1.02;;
29412;SDS011;16389;50.126;8.450;2023-11-21T08:36:08;2.17;;;0.90;;
29412;SDS011;16389;50.126;8.450;2023-11-21T08:38:35;2.85;;;1.05;;
29412;SDS011;16389;50.126;8.450;2023-11-21T08:41:05;3.10;;;2.85;;
29412;SDS011;16389;50.126;8.450;2023-11-21T08:43:33;2.92;;;1.30;;
29412;SDS011;16389;50.126;8.450;2023-11-21T08:45:59;2.20;;;1.20;;
29412;SDS011;16389;50.126;8.450;2023-11-21T08:48:25;1.67;;;1.10;;
29412;SDS011;16389;50.126;8.450;2023-11-21T08:50:53;3.08;;;1.23;;
29412;SDS011;16389;50.126;8.450;2023-11-21T08:53:19;2.05;;;1.30;;
29412;SDS011;16389;50.126;8.450;2023-11-21T08:55:45;2.30;;;1.02;;
29412;SDS011;16389;50.126;8.450;2023-11-21T08:58:11;1.58;;;1.10;;
29412;SDS011;16389;50.126;8.450;2023-11-21T09:00:39;2.20;;;1.17;;
29412;SDS011;16389;50.126;8.450;2023-11-21T09:03:09;3.30;;;1.50;;
29412;SDS011;16389;50.126;8.450;2023-11-21T09:05:39;3.00;;;1.30;;
29412;SDS011;16389;50.126;8.450;2023-11-21T09:08:14;4.68;;;1.42;;
29412;SDS011;16389;50.126;8.450;2023-11-21T09:10:43;6.07;;;1.42;;
29412;SDS011;16389;50.126;8.450;2023-11-21T09:13:12;2.90;;;1.38;;
29412;SDS011;16389;50.126;8.450;2023-11-21T09:15:42;2.00;;;1.33;;
29412;SDS011;16389;50.126;8.450;2023-11-21T09:18:08;4.28;;;1.10;;
29412;SDS011;16389;50.126;8.450;2023-11-21T09:20:38;2.28;;;1.20;;
29412;SDS011;16389;50.126;8.450;2023-11-21T09:23:04;3.75;;;1.33;;
29412;SDS011;16389;50.126;8.450;2023-11-21T09:25:32;3.35;;;1.35;;
29412;SDS011;16389;50.126;8.450;2023-11-21T09:27:58;4.18;;;1.45;;
29412;SDS011;16389;50.126;8.450;2023-11-21T09:30:25;1.90;;;1.30;;
29412;SDS011;16389;50.126;8.450;2023-11-21T09:32:51;3.75;;;2.03;;
29412;SDS011;16389;50.126;8.450;2023-11-21T09:35:18;2.17;;;1.38;;
29412;SDS011;16389;50.126;8.450;2023-11-21T09:37:50;2.35;;;1.60;;
29412;SDS011;16389;50.126;8.450;2023-11-21T09:40:17;4.85;;;1.83;;
29412;SDS011;16389;50.126;8.450;2023-11-21T09:42:49;3.50;;;1.65;;
29412;SDS011;16389;50.126;8.450;2023-11-21T09:45:26;2.90;;;1.50;;
29412;SDS011;16389;50.126;8.450;2023-11-21T09:47:57;4.40;;;1.50;;
29412;SDS011;16389;50.126;8.450;2023-11-21T09:50:23;4.65;;;1.77;;
29412;SDS011;16389;50.126;8.450;2023-11-21T09:55:36;6.93;;;3.75;;
29412;SDS011;16389;50.126;8.450;2023-11-21T09:58:05;6.38;;;2.40;;
29412;SDS011;16389;50.126;8.450;2023-11-21T10:00:40;5.05;;;2.28;;
29412;SDS011;16389;50.126;8.450;2023-11-21T10:03:06;4.60;;;2.45;;
29412;SDS011;16389;50.126;8.450;2023-11-21T10:05:33;3.15;;;1.58;;
29412;SDS011;16389;50.126;8.450;2023-11-21T10:07:59;3.72;;;1.73;;
29412;SDS011;16389;50.126;8.450;2023-11-21T10:10:25;5.50;;;2.00;;
29412;SDS011;16389;50.126;8.450;2023-11-21T10:12:57;2.92;;;1.77;;
29412;SDS011;16389;50.126;8.450;2023-11-21T10:15:28;3.88;;;1.77;;
29412;SDS011;16389;50.126;8.450;2023-11-21T10:18:01;10.32;;;3.97;;
29412;SDS011;16389;50.126;8.450;2023-11-21T10:20:32;3.83;;;2.00;;
29412;SDS011;16389;50.126;8.450;2023-11-21T10:23:03;10.60;;;1.98;;
29412;SDS011;16389;50.126;8.450;2023-11-21T10:25:32;4.10;;;2.03;;
29412;SDS011;16389;50.126;8.450;2023-11-21T10:27:59;5.22;;;1.80;;
29412;SDS011;16389;50.126;8.450;2023-11-21T10:30:35;5.72;;;2.83;;
29412;SDS011;16389;50.126;8.450;2023-11-21T10:33:03;2.10;;;1.50;;
29412;SDS011;16389;50.126;8.450;2023-11-21T10:38:26;4.65;;;1.80;;
29412;SDS011;16389;50.126;8.450;2023-11-21T10:40:56;2.72;;;1.30;;
29412;SDS011;16389;50.126;8.450;2023-11-21T10:43:26;2.00;;;1.35;;
29412;SDS011;16389;50.126;8.450;2023-11-21T10:45:52;2.85;;;1.60;;
29412;SDS011;16389;50.126;8.450;2023-11-21T10:48:27;4.47;;;1.50;;
29412;SDS011;16389;50.126;8.450;2023-11-21T10:50:56;3.13;;;1.60;;
29412;SDS011;16389;50.126;8.450;2023-11-21T10:53:28;4.38;;;1.77;;
29412;SDS011;16389;50.126;8.450;2023-11-21T10:56:05;2.10;;;1.30;;
29412;SDS011;16389;50.126;8.450;2023-11-21T10:58:35;2.90;;;1.48;;
29412;SDS011;16389;50.126;8.450;2023-11-21T11:01:06;4.45;;;1.85;;
29412;SDS011;16389;50.126;8.450;2023-11-21T11:03:36;3.63;;;1.90;;
29412;SDS011;16389;50.126;8.450;2023-11-21T11:06:06;2.55;;;1.60;;
29412;SDS011;16389;50.126;8.450;2023-11-21T11:08:45;2.72;;;1.45;;
29412;SDS011;16389;50.126;8.450;2023-11-21T11:11:13;3.03;;;1.45;;
29412;SDS011;16389;50.126;8.450;2023-11-21T11:13:42;2.72;;;1.42;;
29412;SDS011;16389;50.126;8.450;2023-11-21T11:16:17;2.13;;;1.55;;
29412;SDS011;16389;50.126;8.450;2023-11-21T11:18:43;2.50;;;1.75;;
29412;SDS011;16389;50.126;8.450;2023-11-21T11:29:18;4.80;;;1.65;;
29412;SDS011;16389;50.126;8.450;2023-11-21T11:36:51;2.10;;;1.45;;
29412;SDS011;16389;50.126;8.450;2023-11-21T11:42:12;3.33;;;1.48;;
29412;SDS011;16389;50.126;8.450;2023-11-21T11:47:31;2.08;;;1.17;;
29412;SDS011;16389;50.126;8.450;2023-11-21T11:50:07;2.60;;;1.33;;
29412;SDS011;16389;50.126;8.450;2023-11-21T11:55:09;20.73;;;2.35;;
29412;SDS011;16389;50.126;8.450;2023-11-21T11:57:36;3.33;;;1.45;;
29412;SDS011;16389;50.126;8.450;2023-11-21T12:05:55;1.60;;;1.50;;
29412;SDS011;16389;50.126;8.450;2023-11-21T12:08:29;2.28;;;1.40;;
29412;SDS011;16389;50.126;8.450;2023-11-21T12:11:17;2.92;;;1.95;;
29412;SDS011;16389;50.126;8.450;2023-11-21T12:13:46;2.25;;;1.60;;
29412;SDS011;16389;50.126;8.450;2023-11-21T12:16:12;3.70;;;1.65;;
29412;SDS011;16389;50.126;8.450;2023-11-21T12:18:41;2.05;;;1.85;;
29412;SDS011;16389;50.126;8.450;2023-11-21T12:21:30;4.88;;;1.73;;
29412;SDS011;16389;50.126;8.450;2023-11-21T12:23:57;6.40;;;1.95;;
29412;SDS011;16389;50.126;8.450;2023-11-21T12:26:24;4.70;;;1.75;;
29412;SDS011;16389;50.126;8.450;2023-11-21T12:31:32;3.88;;;1.60;;
29412;SDS011;16389;50.126;8.450;2023-11-21T12:34:01;5.93;;;1.63;;
29412;SDS011;16389;50.126;8.450;2023-11-21T12:36:28;3.58;;;1.98;;
29412;SDS011;16389;50.126;8.450;2023-11-21T12:38:55;3.05;;;1.50;;
29412;SDS011;16389;50.126;8.450;2023-11-21T12:41:33;2.50;;;1.80;;
29412;SDS011;16389;50.126;8.450;2023-11-21T12:44:00;2.10;;;1.58;;
29412;SDS011;16389;50.126;8.450;2023-11-21T12:46:26;3.05;;;1.88;;
29412;SDS011;16389;50.126;8.450;2023-11-21T12:48:54;3.90;;;2.15;;
29412;SDS011;16389;50.126;8.450;2023-11-21T12:51:21;3.50;;;1.98;;
29412;SDS011;16389;50.126;8.450;2023-11-21T12:53:47;2.38;;;1.88;;
29412;SDS011;16389;50.126;8.450;2023-11-21T12:56:13;3.00;;;2.05;;
29412;SDS011;16389;50.126;8.450;2023-11-21T13:02:08;3.17;;;1.67;;
29412;SDS011;16389;50.126;8.450;2023-11-21T13:04:35;3.22;;;2.15;;
29412;SDS011;16389;50.126;8.450;2023-11-21T13:07:05;3.65;;;2.28;;
29412;SDS011;16389;50.126;8.450;2023-11-21T13:09:39;5.07;;;2.65;;
29412;SDS011;16389;50.126;8.450;2023-11-21T13:12:08;2.45;;;1.77;;
29412;SDS011;16389;50.126;8.450;2023-11-21T13:14:35;3.83;;;2.20;;
29412;SDS011;16389;50.126;8.450;2023-11-21T13:19:59;2.70;;;1.92;;
29412;SDS011;16389;50.126;8.450;2023-11-21T13:22:28;3.33;;;2.17;;
29412;SDS011;16389;50.126;8.450;2023-11-21T13:24:54;3.33;;;1.77;;
29412;SDS011;16389;50.126;8.450;2023-11-21T13:27:20;2.83;;;1.95;;
29412;SDS011;16389;50.126;8.450;2023-11-21T13:29:46;2.90;;;1.70;;
29412;SDS011;16389;50.126;8.450;2023-11-21T13:32:13;2.40;;;1.70;;
29412;SDS011;16389;50.126;8.450;2023-11-21T13:34:41;4.90;;;2.58;;
29412;SDS011;16389;50.126;8.450;2023-11-21T13:37:15;4.15;;;1.80;;
29412;SDS011;16389;50.126;8.450;2023-11-21T13:39:45;4.35;;;2.17;;
29412;SDS011;16389;50.126;8.450;2023-11-21T13:44:57;2.50;;;1.60;;
29412;SDS011;16389;50.126;8.450;2023-11-21T13:47:25;1.87;;;1.40;;
29412;SDS011;16389;50.126;8.450;2023-11-21T13:49:54;2.38;;;1.80;;
29412;SDS011;16389;50.126;8.450;2023-11-21T13:52:29;3.33;;;1.77;;
29412;SDS011;16389;50.126;8.450;2023-11-21T13:55:05;2.60;;;1.60;;
29412;SDS011;16389;50.126;8.450;2023-11-21T13:57:39;5.68;;;2.88;;
29412;SDS011;16389;50.126;8.450;2023-11-21T14:00:12;2.70;;;1.77;;
29412;SDS011;16389;50.126;8.450;2023-11-21T14:02:59;3.65;;;2.92;;
29412;SDS011;16389;50.126;8.450;2023-11-21T14:05:36;4.75;;;2.38;;
29412;SDS011;16389;50.126;8.450;2023-11-21T14:08:03;3.70;;;2.53;;
29412;SDS011;16389;50.126;8.450;2023-11-21T14:10:38;3.67;;;2.88;;
29412;SDS011;16389;50.126;8.450;2023-11-21T14:13:15;4.85;;;3.40;;
29412;SDS011;16389;50.126;8.450;2023-11-21T14:16:03;6.53;;;3.75;;
29412;SDS011;16389;50.126;8.450;2023-11-21T14:18:31;9.65;;;4.57;;
29412;SDS011;16389;50.126;8.450;2023-11-21T14:21:06;5.47;;;4.38;;
29412;SDS011;16389;50.126;8.450;2023-11-21T14:23:49;4.78;;;4.38;;
29412;SDS011;16389;50.126;8.450;2023-11-21T14:32:51;5.05;;;4.43;;
29412;SDS011;16389;50.126;8.450;2023-11-21T14:35:39;5.28;;;4.38;;
29412;SDS011;16389;50.126;8.450;2023-11-21T14:38:41;6.43;;;4.70;;
29412;SDS011;16389;50.126;8.450;2023-11-21T14:43:36;5.50;;;4.60;;
29412;SDS011;16389;50.126;8.450;2023-11-21T14:46:06;7.60;;;5.32;;
29412;SDS011;16389;50.126;8.450;2023-11-21T14:48:35;8.18;;;5.13;;
29412;SDS011;16389;50.126;8.450;2023-11-21T14:51:30;6.35;;;4.95;;
29412;SDS011;16389;50.126;8.450;2023-11-21T14:53:57;7.47;;;5.60;;
29412;SDS011;16389;50.126;8.450;2023-11-21T14:56:34;5.70;;;5.10;;
29412;SDS011;16389;50.126;8.450;2023-11-21T14:59:12;8.98;;;5.95;;
29412;SDS011;16389;50.126;8.450;2023-11-21T15:01:42;8.27;;;4.65;;
29412;SDS011;16389;50.126;8.450;2023-11-21T15:04:20;10.73;;;6.22;;
29412;SDS011;16389;50.126;8.450;2023-11-21T15:06:56;10.32;;;5.07;;
29412;SDS011;16389;50.126;8.450;2023-11-21T15:09:31;6.50;;;5.28;;
29412;SDS011;16389;50.126;8.450;2023-11-21T15:12:09;6.68;;;5.38;;
29412;SDS011;16389;50.126;8.450;2023-11-21T15:14:46;7.60;;;5.22;;
29412;SDS011;16389;50.126;8.450;2023-11-21T15:17:24;12.63;;;5.50;;
29412;SDS011;16389;50.126;8.450;2023-11-21T15:19:56;8.32;;;5.05;;
29412;SDS011;16389;50.126;8.450;2023-11-21T15:22:22;6.32;;;5.07;;
29412;SDS011;16389;50.126;8.450;2023-11-21T15:24:53;11.38;;;5.20;;
29412;SDS011;16389;50.126;8.450;2023-11-21T15:27:30;9.95;;;5.45;;
29412;SDS011;16389;50.126;8.450;2023-11-21T15:29:56;7.63;;;5.22;;
29412;SDS011;16389;50.126;8.450;2023-11-21T15:35:28;6.00;;;5.40;;
29412;SDS011;16389;50.126;8.450;2023-11-21T15:37:55;8.65;;;5.30;;
29412;SDS011;16389;50.126;8.450;2023-11-21T15:40:23;9.45;;;5.18;;
29412;SDS011;16389;50.126;8.450;2023-11-21T15:42:50;8.63;;;6.00;;
29412;SDS011;16389;50.126;8.450;2023-11-21T15:45:19;6.68;;;5.32;;
29412;SDS011;16389;50.126;8.450;2023-11-21T15:47:48;6.60;;;5.32;;
29412;SDS011;16389;50.126;8.450;2023-11-21T15:53:11;8.88;;;5.03;;
29412;SDS011;16389;50.126;8.450;2023-11-21T15:55:37;6.72;;;5.32;;
29412;SDS011;16389;50.126;8.450;2023-11-21T16:00:36;6.10;;;5.45;;
29412;SDS011;16389;50.126;8.450;2023-11-21T16:03:14;8.18;;;5.32;;
29412;SDS011;16389;50.126;8.450;2023-11-21T16:05:50;6.63;;;4.88;;
29412;SDS011;16389;50.126;8.450;2023-11-21T16:08:17;7.25;;;5.38;;